Time;durP1;ratioP1;P1;durP2;ratioP2;P2;SDS_P1;SDS_P2;PMS_P1;PMS_P2;Temp;Humidity;BMP_temperature;BMP_pressure;BME280_temperature;BME280_humidity;BME280_pressure;Samples;Min_cycle;Max_cycle;Signal;HPM_P1;HPM_P2
2023/04/08 00:00:48;;;;;;;;;10.00;9.00;;;;;11.17;55.00;102092.41;1980486;28;3484623;-76
2023/04/08 00:01:59;;;;;;;;;8.00;7.00;;;;;11.16;54.93;102100.34;1963554;28;2735771;-76
2023/04/08 00:03:10;;;;;;;;;8.00;7.00;;;;;11.13;54.91;102093.34;1987241;28;2744422;-76
2023/04/08 00:04:23;;;;;;;;;7.83;7.00;;;;;11.11;54.97;102103.03;1988183;28;2732047;-76
2023/04/08 00:05:38;;;;;;;;;9.67;8.33;;;;;11.09;54.99;102091.63;1987199;28;2757550;-77
2023/04/08 00:06:48;;;;;;;;;11.00;9.00;;;;;11.07;55.12;102102.19;1947235;28;3485649;-77
2023/04/08 00:07:59;;;;;;;;;9.00;9.00;;;;;11.07;55.53;102102.19;1996057;28;2750306;-77
2023/04/08 00:09:10;;;;;;;;;12.67;7.67;;;;;11.07;55.64;102106.56;1945982;28;3489851;-76
2023/04/08 00:10:21;;;;;;;;;9.67;8.00;;;;;11.07;55.34;102109.22;1985022;28;3474254;-76
2023/04/08 00:11:32;;;;;;;;;11.33;9.33;;;;;11.06;55.72;102105.72;1982108;28;3496077;-76
2023/04/08 00:12:43;;;;;;;;;8.00;8.00;;;;;11.06;55.60;102104.84;1989489;28;2746096;-76
2023/04/08 00:13:57;;;;;;;;;8.83;8.00;;;;;11.05;55.81;102098.72;1992742;28;2730474;-76
2023/04/08 00:15:07;;;;;;;;;11.00;10.50;;;;;11.05;55.63;102097.84;1941213;28;2789924;-77
2023/04/08 00:16:18;;;;;;;;;11.00;7.67;;;;;11.04;55.60;102102.22;1974845;28;2757584;-77
2023/04/08 00:17:29;;;;;;;;;13.00;10.50;;;;;11.03;55.65;102098.75;1985524;28;2782584;-76
2023/04/08 00:18:40;;;;;;;;;8.33;8.33;;;;;11.03;55.83;102101.38;1993743;28;2748182;-77
2023/04/08 00:19:54;;;;;;;;;5.50;5.50;;;;;11.05;55.65;102100.47;1974649;28;2745065;-76
2023/04/08 00:21:04;;;;;;;;;11.67;9.00;;;;;11.03;55.73;102100.50;1941982;28;3486717;-77
2023/04/08 00:22:16;;;;;;;;;9.33;9.33;;;;;11.01;55.68;102094.41;1995611;28;1835680;-76
2023/04/08 00:23:29;;;;;;;;;10.50;8.17;;;;;11.00;55.89;102103.16;1974467;28;2750261;-76
2023/04/08 00:24:40;;;;;;;;;11.00;11.00;;;;;11.00;55.90;102105.78;1937747;28;2788261;-77
2023/04/08 00:25:51;;;;;;;;;10.67;7.67;;;;;11.00;55.67;102111.06;1989300;28;1829456;-76
2023/04/08 00:27:02;;;;;;;;;14.33;9.33;;;;;11.00;55.85;102109.31;1948394;28;3495067;-76
2023/04/08 00:28:13;;;;;;;;;9.33;8.67;;;;;10.99;55.69;102102.28;1976835;28;3470411;-76
2023/04/08 00:29:23;;;;;;;;;11.00;10.00;;;;;10.98;55.63;102099.69;1973674;28;3508588;-76
2023/04/08 00:30:35;;;;;;;;;8.33;7.33;;;;;10.97;56.10;102105.81;1995107;28;2745068;-77
2023/04/08 00:31:48;;;;;;;;;10.33;9.00;;;;;10.96;55.72;102102.34;1974784;28;2742998;-77
2023/04/08 00:33:00;;;;;;;;;11.00;8.50;;;;;10.96;55.86;102102.34;1962142;28;1839848;-76
2023/04/08 00:34:11;;;;;;;;;10.67;10.33;;;;;10.96;55.78;102102.34;1969471;28;3502324;-77
2023/04/08 00:35:22;;;;;;;;;12.00;10.67;;;;;10.97;55.85;102105.81;1988380;28;1841948;-77
2023/04/08 00:36:35;;;;;;;;;9.67;9.00;;;;;10.96;55.70;102104.09;1958753;28;2749225;-77
2023/04/08 00:37:46;;;;;;;;;11.00;11.00;;;;;10.96;55.77;102104.97;1945700;28;3515863;-76
2023/04/08 00:38:57;;;;;;;;;11.67;9.33;;;;;10.96;55.82;102107.59;1968671;28;3496050;-77
2023/04/08 00:40:08;;;;;;;;;10.33;10.33;;;;;10.96;56.08;102106.72;1984951;28;2779541;-77
2023/04/08 00:41:19;;;;;;;;;11.00;10.67;;;;;10.97;55.64;102108.44;1970789;28;3515876;-76
2023/04/08 00:42:30;;;;;;;;;10.33;9.33;;;;;10.95;55.73;102105.84;1979575;28;3488786;-76
2023/04/08 00:43:41;;;;;;;;;12.00;9.67;;;;;10.94;55.86;102105.88;1981977;28;3505464;-77
2023/04/08 00:44:52;;;;;;;;;13.67;10.00;;;;;10.94;56.00;102112.00;1981905;28;3510665;-77
2023/04/08 00:46:04;;;;;;;;;9.33;9.33;;;;;10.95;56.15;102107.59;1995141;28;2751709;-77
2023/04/08 00:47:15;;;;;;;;;12.00;9.67;;;;;10.94;55.84;102112.00;1948021;28;2770149;-77
2023/04/08 00:48:25;;;;;;;;;11.00;9.00;;;;;10.95;55.83;102111.13;1971089;28;2767000;-77
2023/04/08 00:49:36;;;;;;;;;8.67;8.67;;;;;10.93;56.10;102110.28;2001144;28;1827340;-77
2023/04/08 00:50:47;;;;;;;;;12.67;12.00;;;;;10.93;56.01;102107.63;1946216;28;3517939;-77
2023/04/08 00:51:59;;;;;;;;;9.00;8.00;;;;;10.92;55.97;102111.16;1982800;28;2746119;-77
2023/04/08 00:53:17;;;;;;;;;9.33;7.00;;;;;10.90;56.16;102112.94;1980747;28;2743078;-77
2023/04/08 00:54:27;;;;;;;;;12.00;11.00;;;;;10.88;56.07;102114.72;1953146;29;3515872;-77
2023/04/08 00:55:38;;;;;;;;;8.50;8.00;;;;;10.88;56.01;102122.59;1972927;28;2753403;-77
2023/04/08 00:56:49;;;;;;;;;9.00;7.00;;;;;10.86;56.37;102112.13;1987944;28;2746094;-77
2023/04/08 00:58:00;;;;;;;;;12.00;9.67;;;;;10.84;56.30;102120.91;1946681;28;3494009;-77
2023/04/08 00:59:11;;;;;;;;;9.67;9.00;;;;;10.80;56.04;102114.78;1977917;28;2764964;-77
2023/04/08 01:00:23;;;;;;;;;11.75;9.25;;;;;10.79;56.54;102119.19;1993697;28;1841925;-77
2023/04/08 01:01:43;;;;;;;;;12.00;9.00;;;;;10.80;56.39;102120.06;1970995;28;2760076;-77
2023/04/08 01:02:56;;;;;;;;;14.00;11.00;;;;;10.78;56.56;102119.22;1960307;28;2789875;-77
2023/04/08 01:04:32;;;;;;;;;15.00;9.33;;;;;10.75;56.38;102120.13;1961994;28;3505452;-77
2023/04/08 01:05:57;;;;;;;;;8.67;8.33;;;;;10.75;56.42;102116.59;1965410;28;3465866;-77
2023/04/08 01:07:19;;;;;;;;;10.33;9.00;;;;;10.75;56.55;102111.34;1957021;28;3463770;-77
2023/04/08 01:08:31;;;;;;;;;11.00;10.00;;;;;10.73;56.45;102116.63;1969637;28;3501333;-77
2023/04/08 01:09:46;;;;;;;;;9.67;9.67;;;;;10.72;56.16;102112.25;1968473;28;3488796;-77
2023/04/08 01:11:00;;;;;;;;;9.00;9.00;;;;;10.73;56.34;102110.50;1971075;28;2756152;-77
2023/04/08 01:12:21;;;;;;;;;9.00;7.50;;;;;10.72;56.63;102109.63;1995511;28;2739869;-77
2023/04/08 01:13:38;;;;;;;;;10.67;9.67;;;;;10.72;56.45;102116.66;1944465;28;3497119;-77
2023/04/08 01:14:51;;;;;;;;;9.67;9.67;;;;;10.72;56.31;102114.03;1969778;28;3487744;-77
2023/04/08 01:16:08;;;;;;;;;8.33;7.17;;;;;10.71;56.14;102115.78;1990011;28;2738856;-77
2023/04/08 01:17:21;;;;;;;;;10.67;9.67;;;;;10.71;56.66;102115.78;1969750;28;3498562;-77
2023/04/08 01:18:32;;;;;;;;;11.00;9.00;;;;;10.71;56.38;102114.91;1969232;28;3486023;-77
2023/04/08 01:19:45;;;;;;;;;11.33;10.00;;;;;10.69;56.68;102112.31;1961252;28;3508569;-77
2023/04/08 01:20:57;;;;;;;;;11.67;8.33;;;;;10.69;55.75;102117.56;1963622;28;2766932;-77
2023/04/08 01:22:33;;;;;;;;;13.50;8.17;;;;;10.67;56.39;102114.06;1987781;28;2754468;-77
2023/04/08 01:24:11;;;;;;;;;8.00;8.00;;;;;10.62;56.65;102110.63;1943380;28;3441900;-76
2023/04/08 01:25:35;;;;;;;;;2.83;2.83;;;;;10.56;56.40;102114.19;1983906;28;2744044;-77
2023/04/08 01:26:49;;;;;;;;;7.50;7.50;;;;;10.51;56.73;102114.25;1979382;28;2740939;-77
2023/04/08 01:28:06;;;;;;;;;8.00;7.17;;;;;10.48;56.42;102111.59;1988187;28;2744059;-77
2023/04/08 01:29:18;;;;;;;;;10.67;5.67;;;;;10.47;56.04;102121.25;1967276;28;2755588;-77
2023/04/08 01:30:32;;;;;;;;;7.50;7.17;;;;;10.47;56.20;102109.84;1996042;28;2746087;-77
2023/04/08 01:31:46;;;;;;;;;8.33;6.00;;;;;10.46;56.32;102116.91;1996510;28;2740915;-77
2023/04/08 01:33:00;;;;;;;;;10.00;7.67;;;;;10.45;56.57;102114.25;1969467;28;3468975;-77
2023/04/08 01:34:15;;;;;;;;;6.17;6.00;;;;;10.44;56.05;102113.41;1997220;28;2733608;-77
2023/04/08 01:35:30;;;;;;;;;9.83;7.17;;;;;10.45;56.35;102114.25;1995306;28;2752405;-77
2023/04/08 01:36:45;;;;;;;;;7.33;6.17;;;;;10.41;56.45;102116.06;1959025;29;2739862;-77
2023/04/08 01:38:00;;;;;;;;;8.17;5.83;;;;;10.40;56.42;102116.06;1995453;28;2748186;-76
2023/04/08 01:39:11;;;;;;;;;7.00;5.00;;;;;10.38;56.33;102113.47;1968599;28;3458597;-77
2023/04/08 01:40:23;;;;;;;;;8.80;6.00;;;;;10.38;56.74;102117.84;1996430;28;2738820;-77
2023/04/08 01:41:38;;;;;;;;;7.67;6.00;;;;;10.38;56.39;102109.94;1974369;28;2736735;-76
2023/04/08 01:42:50;;;;;;;;;10.67;8.00;;;;;10.39;56.08;102109.97;1962328;28;2761729;-77
2023/04/08 01:44:04;;;;;;;;;6.33;6.33;;;;;10.38;56.12;102109.94;1990412;28;2727334;-77
2023/04/08 01:45:17;;;;;;;;;6.17;6.17;;;;;10.38;56.27;102109.94;1996769;28;2742983;-77
2023/04/08 01:46:31;;;;;;;;;7.00;6.33;;;;;10.39;56.18;102114.34;1983499;28;2736713;-77
2023/04/08 01:47:46;;;;;;;;;7.00;7.00;;;;;10.39;56.40;102114.34;1970458;28;2734709;-77
2023/04/08 01:48:57;;;;;;;;;8.00;6.67;;;;;10.38;56.14;102113.47;1961778;28;3459604;-77
2023/04/08 01:50:12;;;;;;;;;1.67;0.17;;;;;10.39;56.18;102109.09;1990356;28;2727361;-77
2023/04/08 01:51:28;;;;;;;;;6.83;6.50;;;;;10.39;56.22;102114.34;1995795;28;2746149;-77
2023/04/08 01:52:47;;;;;;;;;7.67;7.67;;;;;10.39;56.49;102112.59;1995804;28;2728743;-76
2023/04/08 01:54:01;;;;;;;;;6.00;6.00;;;;;10.38;56.50;102105.56;1996241;28;2736716;-77
2023/04/08 01:55:15;;;;;;;;;8.83;6.50;;;;;10.38;56.50;102115.22;1993856;28;2738844;-77
2023/04/08 01:56:35;;;;;;;;;7.67;7.33;;;;;10.38;56.15;102107.31;1983731;28;2736728;-77
2023/04/08 01:57:53;;;;;;;;;7.00;6.50;;;;;10.37;56.54;102113.50;1986138;28;2737770;-77
2023/04/08 01:59:10;;;;;;;;;6.00;6.00;;;;;10.37;56.12;102116.97;1994443;28;2744035;-77
2023/04/08 02:00:26;;;;;;;;;8.50;6.83;;;;;10.37;56.61;102116.13;1996419;28;2734663;-77
2023/04/08 02:01:43;;;;;;;;;8.00;7.00;;;;;10.32;56.60;102114.38;1996438;28;2738796;-77
2023/04/08 02:02:56;;;;;;;;;8.67;7.00;;;;;10.31;56.30;102114.41;1970246;28;3453382;-77
2023/04/08 02:04:09;;;;;;;;;8.33;6.50;;;;;10.30;56.17;102115.28;1995797;28;2738835;-77
2023/04/08 02:05:19;;;;;;;;;7.00;7.00;;;;;10.27;56.45;102105.69;1970904;28;2738855;-77
2023/04/08 02:06:32;;;;;;;;;8.25;8.00;;;;;10.28;56.55;102110.03;1994945;28;2729452;-77
2023/04/08 02:07:49;;;;;;;;;7.67;6.50;;;;;10.27;56.35;102104.81;1995961;28;2748221;-77
2023/04/08 02:09:03;;;;;;;;;9.67;8.00;;;;;10.24;56.42;102103.97;1995453;28;2746107;-77
2023/04/08 02:10:16;;;;;;;;;5.33;5.00;;;;;10.24;56.56;102111.84;1995313;28;2735718;-77
2023/04/08 02:11:28;;;;;;;;;11.67;7.67;;;;;10.24;57.15;102119.72;1962948;28;2757660;-76
2023/04/08 02:12:38;;;;;;;;;11.00;8.33;;;;;10.21;56.66;102114.50;1966079;28;3459604;-77
2023/04/08 02:13:51;;;;;;;;;6.50;6.25;;;;;10.20;56.70;102115.38;1997131;28;2737758;-77
2023/04/08 02:15:05;;;;;;;;;7.83;7.00;;;;;10.20;56.43;102114.50;1975186;28;2737814;-77
2023/04/08 02:16:32;;;;;;;;;7.00;6.67;;;;;10.18;56.68;102113.63;1996187;28;2741922;-77
2023/04/08 02:17:51;;;;;;;;;10.00;8.00;;;;;10.17;56.76;102114.53;1989064;28;2746131;-77
2023/04/08 02:19:08;;;;;;;;;9.33;6.50;;;;;10.17;56.66;102111.91;1960670;28;2744035;-77
2023/04/08 02:20:42;;;;;;;;;9.67;7.00;;;;;10.17;56.66;102118.06;1968036;28;2746083;-77
2023/04/08 02:22:01;;;;;;;;;8.83;7.33;;;;;10.17;56.89;102114.53;1974883;28;2739864;-77
2023/04/08 02:23:24;;;;;;;;;8.17;8.00;;;;;10.15;56.63;102111.06;1997052;28;2731564;-77
2023/04/08 02:24:35;;;;;;;;;9.33;8.33;;;;;10.16;56.82;102115.41;1971281;28;2743143;-77
2023/04/08 02:25:47;;;;;;;;;9.00;8.67;;;;;10.14;56.66;102110.19;1971783;28;2743031;-76
2023/04/08 02:27:02;;;;;;;;;9.00;7.67;;;;;10.12;56.61;102110.19;1997797;28;2736761;-76
2023/04/08 02:28:18;;;;;;;;;8.67;7.33;;;;;10.09;56.91;102111.97;1989385;28;2741960;-77
2023/04/08 02:29:35;;;;;;;;;7.50;7.00;;;;;10.09;56.97;102114.59;1990503;28;2739867;-77
2023/04/08 02:30:56;;;;;;;;;10.00;7.33;;;;;10.07;57.01;102112.00;1970319;28;3476294;-77
2023/04/08 02:32:11;;;;;;;;;9.83;7.33;;;;;10.07;56.73;102109.38;1996719;28;2748178;-77
2023/04/08 02:33:26;;;;;;;;;10.83;6.83;;;;;10.05;56.70;102111.13;1997379;28;2756538;-77
2023/04/08 02:34:41;;;;;;;;;5.50;5.50;;;;;10.06;56.86;102106.75;1974283;28;2746098;-77
2023/04/08 02:35:53;;;;;;;;;12.00;7.00;;;;;10.06;57.11;102112.88;1968939;28;3486718;-77
2023/04/08 02:37:07;;;;;;;;;7.67;7.00;;;;;10.04;56.95;102112.03;1997179;28;2739901;-77
2023/04/08 02:38:22;;;;;;;;;7.67;7.17;;;;;10.04;56.60;102109.41;1998165;28;2739849;-77
2023/04/08 02:39:35;;;;;;;;;7.83;6.67;;;;;10.04;57.19;102108.53;1997943;28;2740907;-77
2023/04/08 02:40:50;;;;;;;;;9.83;7.50;;;;;10.03;56.90;102112.91;1996502;28;2751807;-77
2023/04/08 02:42:04;;;;;;;;;8.33;5.00;;;;;10.03;56.82;102110.25;1997702;28;2739877;-77
2023/04/08 02:43:15;;;;;;;;;10.33;9.00;;;;;10.04;56.89;102111.16;1971001;28;3480465;-77
2023/04/08 02:44:28;;;;;;;;;5.67;4.67;;;;;10.04;56.75;102114.66;1996836;28;2737785;-77
2023/04/08 02:45:43;;;;;;;;;6.67;6.67;;;;;10.03;56.99;102105.00;1995322;28;2746229;-77
2023/04/08 02:46:56;;;;;;;;;7.83;7.00;;;;;10.05;57.07;102107.66;1997340;28;2737798;-77
2023/04/08 02:48:09;;;;;;;;;9.00;7.50;;;;;10.03;56.60;102110.25;1995869;28;2746612;-76
2023/04/08 02:49:23;;;;;;;;;8.17;6.50;;;;;10.00;57.06;102113.78;1996487;28;2740891;-77
2023/04/08 02:50:36;;;;;;;;;8.17;7.00;;;;;9.99;56.50;102109.44;1996402;28;2735726;-77
2023/04/08 02:51:49;;;;;;;;;7.00;6.00;;;;;10.00;57.10;102118.19;1996641;28;2750265;-77
2023/04/08 02:53:03;;;;;;;;;10.67;8.00;;;;;10.00;56.94;102118.19;1996288;28;2740895;-77
2023/04/08 02:54:13;;;;;;;;;6.67;6.67;;;;;10.00;57.00;102118.19;1940537;28;2739889;-77
2023/04/08 02:55:24;;;;;;;;;6.33;5.33;;;;;10.00;56.92;102118.19;1988888;28;2739869;-77
2023/04/08 02:56:37;;;;;;;;;7.33;7.33;;;;;10.00;56.94;102110.31;1995687;28;2745057;-77
2023/04/08 02:57:50;;;;;;;;;6.17;6.17;;;;;10.00;56.69;102115.56;1997595;28;2738823;-76
2023/04/08 02:59:04;;;;;;;;;9.00;7.00;;;;;10.00;57.38;102120.81;1997535;28;2737811;-76
2023/04/08 03:00:17;;;;;;;;;7.33;7.00;;;;;9.99;56.99;102117.31;1973381;28;2739858;-76
2023/04/08 03:01:30;;;;;;;;;8.67;6.00;;;;;9.99;56.72;102113.81;1996774;28;2746102;-77
2023/04/08 03:02:43;;;;;;;;;8.83;8.00;;;;;9.97;56.67;102115.59;1974085;28;2729461;-77
2023/04/08 03:03:57;;;;;;;;;9.17;7.00;;;;;9.97;56.90;102119.09;1997317;28;2743006;-77
2023/04/08 03:05:10;;;;;;;;;8.50;6.00;;;;;9.96;56.77;102117.34;1973274;28;2744009;-76
2023/04/08 03:06:23;;;;;;;;;8.33;7.00;;;;;9.95;56.77;102114.72;1997068;28;2734649;-77
2023/04/08 03:07:37;;;;;;;;;8.00;6.00;;;;;9.95;56.79;102117.38;1996951;28;2740942;-77
2023/04/08 03:08:47;;;;;;;;;10.00;6.67;;;;;9.93;57.26;102114.72;1971481;28;2757571;-77
2023/04/08 03:09:58;;;;;;;;;10.00;6.67;;;;;9.92;57.12;102115.63;1987287;28;2756530;-77
2023/04/08 03:11:09;;;;;;;;;10.00;5.67;;;;;9.90;56.84;102117.41;1994694;28;2765894;-76
2023/04/08 03:12:23;;;;;;;;;9.67;7.17;;;;;9.89;57.07;102110.38;1972763;28;2736171;-77
2023/04/08 03:13:34;;;;;;;;;9.67;9.00;;;;;9.88;57.13;102125.28;1934838;28;2752357;-76
2023/04/08 03:14:44;;;;;;;;;12.00;8.00;;;;;9.87;57.02;102123.53;1964574;28;2750277;-77
2023/04/08 03:15:55;;;;;;;;;9.67;7.00;;;;;9.85;56.85;102120.03;1986897;28;3462071;-77
2023/04/08 03:17:07;;;;;;;;;10.25;8.50;;;;;9.82;56.73;102125.34;1995158;28;2766932;-77
2023/04/08 03:18:18;;;;;;;;;9.67;7.33;;;;;9.78;56.64;102118.34;1949436;28;2746221;-77
2023/04/08 03:19:29;;;;;;;;;12.00;10.00;;;;;9.77;56.97;102125.38;1986843;28;2780562;-77
2023/04/08 03:20:40;;;;;;;;;8.00;7.67;;;;;9.77;56.77;102119.25;1996385;28;2733595;-77
2023/04/08 03:21:53;;;;;;;;;7.00;7.00;;;;;9.77;56.72;102119.25;1974605;28;2727439;-77
2023/04/08 03:23:04;;;;;;;;;10.67;8.67;;;;;9.76;57.17;102114.84;1961446;28;2757581;-77
2023/04/08 03:24:15;;;;;;;;;13.00;8.00;;;;;9.75;57.18;102113.13;1975937;28;3483585;-77
2023/04/08 03:25:28;;;;;;;;;8.75;6.25;;;;;9.74;57.11;102116.63;1995240;28;2746111;-76
2023/04/08 03:26:41;;;;;;;;;9.00;9.00;;;;;9.73;57.21;102113.13;1988563;28;2753402;-77
2023/04/08 03:27:54;;;;;;;;;9.17;9.17;;;;;9.73;57.04;102117.53;1997194;28;2739861;-77
2023/04/08 03:29:05;;;;;;;;;11.00;10.00;;;;;9.71;57.50;102114.00;1947355;28;3507535;-77
2023/04/08 03:30:16;;;;;;;;;10.00;9.00;;;;;9.68;57.01;102110.53;1968216;28;3477324;-77
2023/04/08 03:31:28;;;;;;;;;8.75;8.50;;;;;9.67;57.41;102119.31;1989093;28;2734649;-77
2023/04/08 03:32:38;;;;;;;;;9.00;9.00;;;;;9.65;56.88;102115.81;1961872;28;2735777;-77
2023/04/08 03:33:49;;;;;;;;;10.00;8.33;;;;;9.66;57.49;102119.31;1979301;28;3479399;-77
2023/04/08 03:35:01;;;;;;;;;9.75;8.00;;;;;9.66;57.25;102117.56;1987103;28;2756522;-77
2023/04/08 03:36:14;;;;;;;;;8.00;6.17;;;;;9.67;57.39;102114.06;1971433;28;2743002;-77
2023/04/08 03:37:27;;;;;;;;;9.67;9.33;;;;;9.66;57.14;102124.56;1996805;28;2744048;-77
2023/04/08 03:38:38;;;;;;;;;9.67;9.67;;;;;9.66;57.31;102119.31;1948379;28;2757620;-77
2023/04/08 03:39:49;;;;;;;;;10.67;8.00;;;;;9.65;57.58;102123.69;1995400;28;2758598;-76
2023/04/08 03:40:59;;;;;;;;;11.00;8.67;;;;;9.64;57.08;102116.69;1946473;28;3487088;-77
2023/04/08 03:42:11;;;;;;;;;9.00;8.67;;;;;9.65;56.94;102121.06;1995989;28;2733603;-77
2023/04/08 03:43:21;;;;;;;;;11.00;9.00;;;;;9.64;57.28;102121.06;1948504;28;3485677;-76
2023/04/08 03:44:32;;;;;;;;;11.00;10.33;;;;;9.63;57.42;102116.72;1984864;28;3510000;-77
2023/04/08 03:45:43;;;;;;;;;10.67;9.00;;;;;9.62;57.61;102118.47;1985276;28;3473226;-77
2023/04/08 03:46:54;;;;;;;;;11.00;7.00;;;;;9.62;57.05;102118.47;1983688;28;2758615;-77
2023/04/08 03:48:05;;;;;;;;;14.00;11.00;;;;;9.62;57.33;102121.09;1985992;28;3515891;-76
2023/04/08 03:49:17;;;;;;;;;12.00;10.00;;;;;9.61;57.60;102127.22;1992994;28;1841986;-77
2023/04/08 03:50:27;;;;;;;;;11.67;11.00;;;;;9.60;57.41;102119.34;1968358;28;3512730;-77
2023/04/08 03:51:38;;;;;;;;;11.50;9.00;;;;;9.60;57.38;102121.97;1982855;28;2766991;-77
2023/04/08 03:52:49;;;;;;;;;12.67;11.00;;;;;9.60;57.58;102127.22;1982309;28;3512715;-77
2023/04/08 03:54:00;;;;;;;;;8.00;7.00;;;;;9.60;57.32;102116.72;1983993;28;3451275;-77
2023/04/08 03:55:12;;;;;;;;;8.00;8.00;;;;;9.61;57.17;102123.72;1995458;28;2746092;-77
2023/04/08 03:56:23;;;;;;;;;10.33;10.33;;;;;9.60;57.66;102125.47;1968173;28;3509627;-77
2023/04/08 03:57:34;;;;;;;;;13.00;8.00;;;;;9.60;57.47;102125.47;1971233;28;2765958;-77
2023/04/08 03:58:45;;;;;;;;;14.00;10.33;;;;;9.60;57.64;102130.72;1982369;28;3509630;-76
2023/04/08 03:59:56;;;;;;;;;10.00;9.00;;;;;9.59;57.65;102128.09;1984643;28;3470036;-77
2023/04/08 04:01:08;;;;;;;;;14.00;10.50;;;;;9.58;57.37;102135.09;1983799;28;1842989;-77
2023/04/08 04:02:18;;;;;;;;;14.50;10.00;;;;;9.58;57.37;102124.59;1968467;28;2782560;-77
2023/04/08 04:03:30;;;;;;;;;12.50;11.00;;;;;9.57;57.47;102125.50;1985812;28;2789858;-77
2023/04/08 04:04:40;;;;;;;;;10.33;9.33;;;;;9.57;57.23;102131.63;1969666;28;2770208;-77
2023/04/08 04:05:52;;;;;;;;;13.67;10.00;;;;;9.57;57.37;102129.00;1989471;28;3505453;-77
2023/04/08 04:07:02;;;;;;;;;12.33;11.00;;;;;9.57;57.68;102125.50;1985972;28;1841928;-77
2023/04/08 04:08:14;;;;;;;;;4.67;3.67;;;;;9.56;57.27;102124.63;1965103;28;2747217;-77
2023/04/08 04:09:24;;;;;;;;;13.67;9.67;;;;;9.56;57.43;102126.38;1947588;28;3494025;-77
2023/04/08 04:10:35;;;;;;;;;12.00;12.00;;;;;9.55;57.66;102127.25;1986132;28;2794361;-77
2023/04/08 04:11:46;;;;;;;;;8.00;8.00;;;;;9.55;57.29;102122.00;1985625;28;3456836;-77
2023/04/08 04:12:57;;;;;;;;;14.33;10.00;;;;;9.55;57.69;102124.63;1984741;28;3515860;-77
2023/04/08 04:14:08;;;;;;;;;11.67;11.00;;;;;9.54;57.34;102128.13;1999537;28;1841997;-77
2023/04/08 04:15:21;;;;;;;;;7.50;6.17;;;;;9.53;57.58;102124.63;1975329;28;2735717;-77
2023/04/08 04:16:33;;;;;;;;;12.50;11.25;;;;;9.53;57.79;102123.78;1983731;28;1844080;-77
2023/04/08 04:17:43;;;;;;;;;13.00;11.00;;;;;9.52;57.84;102127.28;1982650;28;1841918;-77
2023/04/08 04:18:54;;;;;;;;;13.00;11.00;;;;;9.51;57.45;102128.13;1962293;28;2790928;-77
2023/04/08 04:20:06;;;;;;;;;11.00;11.00;;;;;9.50;57.56;102126.41;1990237;28;1821195;-77
2023/04/08 04:21:18;;;;;;;;;13.50;13.00;;;;;9.49;57.69;102130.78;1954491;28;1841926;-77
2023/04/08 04:22:28;;;;;;;;;13.00;11.00;;;;;9.48;57.79;102128.19;1969000;28;2787768;-77
2023/04/08 04:23:39;;;;;;;;;11.00;10.50;;;;;9.47;57.68;102132.56;1986812;28;2788790;-77
2023/04/08 04:24:50;;;;;;;;;10.00;8.00;;;;;9.45;58.00;102127.31;1987363;28;2763811;-77
2023/04/08 04:26:01;;;;;;;;;15.50;10.00;;;;;9.44;57.62;102129.94;1986028;28;2798153;-77
2023/04/08 04:27:12;;;;;;;;;15.00;11.67;;;;;9.43;57.75;102138.72;1991111;28;1840868;-76
2023/04/08 04:28:23;;;;;;;;;8.67;8.67;;;;;9.41;57.87;102132.56;1940730;28;3453382;-77
2023/04/08 04:29:34;;;;;;;;;13.67;12.00;;;;;9.41;57.65;102137.81;1983642;28;3510704;-77
2023/04/08 04:30:45;;;;;;;;;14.75;14.00;;;;;9.38;58.02;102133.50;1996775;28;1813889;-77
2023/04/08 04:31:55;;;;;;;;;12.50;11.00;;;;;9.36;57.67;102135.22;1946911;28;2788817;-77
2023/04/08 04:33:06;;;;;;;;;9.00;9.00;;;;;9.37;57.38;102143.97;1986673;28;2750274;-77
2023/04/08 04:34:18;;;;;;;;;13.60;11.00;;;;;9.34;57.26;102132.63;1995396;28;1829429;-76
2023/04/08 04:35:29;;;;;;;;;13.00;12.00;;;;;9.35;57.74;102136.13;1958133;28;1844031;-76
2023/04/08 04:36:40;;;;;;;;;13.50;12.00;;;;;9.33;57.75;102138.72;1950823;28;2785658;-77
2023/04/08 04:37:51;;;;;;;;;9.67;7.67;;;;;9.33;57.63;102132.63;1961432;28;3467943;-77
2023/04/08 04:39:02;;;;;;;;;10.67;9.67;;;;;9.33;57.79;102137.88;1955381;28;2763370;-76
2023/04/08 04:40:12;;;;;;;;;15.50;13.00;;;;;9.32;57.46;102144.88;1974154;28;2805496;-76
2023/04/08 04:41:23;;;;;;;;;14.00;12.00;;;;;9.31;57.83;102140.50;1986824;28;2787768;-76
2023/04/08 04:42:34;;;;;;;;;15.50;11.25;;;;;9.30;57.64;102149.25;1997669;28;1819139;-77
2023/04/08 04:43:46;;;;;;;;;14.00;9.00;;;;;9.28;57.94;102144.91;1961315;28;1844079;-77
2023/04/08 04:44:57;;;;;;;;;12.67;11.00;;;;;9.26;57.97;102144.88;1968317;28;3510663;-77
2023/04/08 04:46:11;;;;;;;;;13.67;10.50;;;;;9.25;57.81;102151.03;1999124;28;1820138;-77
2023/04/08 04:47:21;;;;;;;;;15.67;13.33;;;;;9.23;57.70;102148.41;1946969;28;3548529;-76
2023/04/08 04:48:32;;;;;;;;;12.50;11.00;;;;;9.23;57.83;102152.81;1947092;28;2786750;-77
2023/04/08 04:49:44;;;;;;;;;11.33;11.33;;;;;9.22;57.99;102157.16;1976538;28;3520006;-76
2023/04/08 04:50:56;;;;;;;;;14.25;13.00;;;;;9.22;58.17;102151.91;1981523;28;1845054;-76
2023/04/08 04:52:09;;;;;;;;;14.83;13.17;;;;;9.22;57.89;102156.28;1999159;28;1831555;-76
2023/04/08 04:53:20;;;;;;;;;16.00;13.33;;;;;9.21;58.12;102158.03;1946828;28;3532525;-76
2023/04/08 04:54:31;;;;;;;;;14.00;12.00;;;;;9.20;58.13;102158.94;1983246;28;3520050;-76
2023/04/08 04:55:42;;;;;;;;;12.00;10.50;;;;;9.19;58.01;102159.78;1982731;28;2791935;-76
2023/04/08 04:56:53;;;;;;;;;13.50;12.00;;;;;9.18;58.13;102165.94;1987689;28;2781546;-76
2023/04/08 04:58:04;;;;;;;;;12.33;11.33;;;;;9.17;58.33;102165.94;1997056;28;1849273;-76
2023/04/08 04:59:15;;;;;;;;;14.00;13.50;;;;;9.14;57.99;102161.56;1959466;28;1848191;-76
2023/04/08 05:00:25;;;;;;;;;16.67;11.33;;;;;9.10;58.33;102176.47;1959239;28;3530442;-76
2023/04/08 05:01:36;;;;;;;;;10.67;9.33;;;;;9.09;58.28;102171.19;1956987;28;2777405;-76
2023/04/08 05:02:47;;;;;;;;;16.00;14.00;;;;;9.09;58.36;102176.44;1984117;28;2813797;-76
2023/04/08 05:03:58;;;;;;;;;16.00;12.00;;;;;9.08;58.16;102179.97;1986341;28;2807561;-77
2023/04/08 05:05:09;;;;;;;;;12.00;12.00;;;;;9.06;58.28;102168.59;1984750;28;2790949;-76
2023/04/08 05:06:23;;;;;;;;;13.00;12.67;;;;;9.06;57.95;102177.31;2004736;28;2791911;-76
2023/04/08 05:07:37;;;;;;;;;14.50;14.00;;;;;9.06;57.86;102174.69;1945533;28;2807579;-76
2023/04/08 05:08:50;;;;;;;;;9.50;6.83;;;;;9.07;58.35;102178.19;1996397;28;2742951;-76
2023/04/08 05:10:02;;;;;;;;;14.00;12.50;;;;;9.06;57.81;102181.72;1944534;28;2791939;-76
2023/04/08 05:11:12;;;;;;;;;19.50;13.00;;;;;9.06;58.12;102176.47;1968576;28;2805476;-76
2023/04/08 05:12:23;;;;;;;;;14.00;14.00;;;;;9.03;58.20;102176.47;1959151;28;2799197;-76
2023/04/08 05:13:35;;;;;;;;;12.00;11.00;;;;;9.03;57.58;102182.59;1962246;28;2790246;-77
2023/04/08 05:14:46;;;;;;;;;16.00;14.00;;;;;9.04;58.31;102183.47;1979398;28;2819006;-77
2023/04/08 05:15:56;;;;;;;;;12.00;12.00;;;;;9.03;58.51;102179.97;1956721;28;3511682;-77
2023/04/08 05:17:08;;;;;;;;;18.00;14.50;;;;;9.03;57.99;102179.09;1993069;28;2813833;-76
2023/04/08 05:18:18;;;;;;;;;12.33;9.33;;;;;9.03;58.52;102179.09;1950385;28;2760755;-76
2023/04/08 05:19:30;;;;;;;;;15.67;14.00;;;;;9.04;58.60;102180.88;1998938;28;1846226;-76
2023/04/08 05:20:40;;;;;;;;;16.00;14.00;;;;;9.03;58.55;102184.34;1950487;28;2823240;-76
2023/04/08 05:21:51;;;;;;;;;18.00;15.50;;;;;9.04;58.54;102183.47;1956621;28;2820046;-76
2023/04/08 05:23:02;;;;;;;;;11.67;10.00;;;;;9.03;58.55;102187.84;1984367;28;2769101;-76
2023/04/08 05:24:13;;;;;;;;;16.00;13.00;;;;;9.02;58.60;102187.84;1983097;28;2800351;-76
2023/04/08 05:25:24;;;;;;;;;15.50;12.25;;;;;9.02;58.72;102182.59;1971768;28;1828474;-76
2023/04/08 05:26:36;;;;;;;;;14.50;14.50;;;;;9.00;58.19;102188.72;1946590;28;2812759;-76
2023/04/08 05:27:47;;;;;;;;;18.00;13.00;;;;;9.00;58.39;102193.97;1945855;28;2841892;-76
2023/04/08 05:28:58;;;;;;;;;13.00;12.00;;;;;9.00;58.77;102191.34;1962811;28;2788119;-76
2023/04/08 05:30:09;;;;;;;;;21.00;14.00;;;;;8.99;58.45;102197.47;1986621;28;2822130;-77